Time;durP1;ratioP1;P1;durP2;ratioP2;P2;SDS_P1;SDS_P2;PMS_P1;PMS_P2;Temp;Humidity;BMP_temperature;BMP_pressure;BME280_temperature;BME280_humidity;BME280_pressure;Samples;Min_cycle;Max_cycle;Signal;HPM_P1;HPM_P2
2022/06/07 00:00:06;;;;;;;4.10;2.90;;;19.00;71.00;;;;;;5013721;28;20457;-75
2022/06/07 00:02:33;;;;;;;2.70;2.40;;;19.00;71.40;;;;;;5019788;28;20431;-76
2022/06/07 00:04:59;;;;;;;3.70;2.50;;;19.00;71.10;;;;;;5020666;28;20416;-74
2022/06/07 00:07:26;;;;;;;2.80;2.67;;;19.10;71.10;;;;;;5005790;28;20466;-76
2022/06/07 00:09:52;;;;;;;3.83;2.83;;;19.00;70.50;;;;;;5013585;28;20455;-75
2022/06/07 00:12:18;;;;;;;4.40;2.50;;;18.90;70.70;;;;;;5013695;28;20423;-74
2022/06/07 00:14:45;;;;;;;3.90;2.80;;;18.90;70.70;;;;;;5015457;28;20510;-74
2022/06/07 00:17:12;;;;;;;5.77;3.03;;;18.80;71.00;;;;;;5011897;28;20666;-74
2022/06/07 00:19:39;;;;;;;2.63;2.40;;;18.80;71.40;;;;;;5011048;28;20836;-74
2022/06/07 00:22:05;;;;;;;2.80;2.70;;;18.90;71.40;;;;;;5017406;28;20405;-73
2022/06/07 00:24:31;;;;;;;3.20;2.90;;;18.90;71.40;;;;;;5012896;28;20482;-74
2022/06/07 00:26:58;;;;;;;3.77;2.90;;;18.90;71.10;;;;;;5022537;28;20542;-74
2022/06/07 00:29:25;;;;;;;2.73;2.50;;;18.90;71.40;;;;;;5013129;28;20420;-73
2022/06/07 00:31:51;;;;;;;4.70;2.90;;;18.90;71.40;;;;;;5018971;28;20464;-75
2022/06/07 00:34:17;;;;;;;3.23;2.50;;;18.90;71.40;;;;;;5015955;28;20435;-72
2022/06/07 00:36:43;;;;;;;2.83;2.70;;;18.90;71.40;;;;;;5012992;28;20462;-72
2022/06/07 00:39:09;;;;;;;3.17;2.50;;;18.90;71.40;;;;;;5014986;28;20538;-73
2022/06/07 00:41:35;;;;;;;3.70;2.33;;;18.80;70.80;;;;;;5013062;28;20417;-73
2022/06/07 00:44:20;;;;;;;3.00;2.47;;;18.80;71.70;;;;;;5014816;28;20413;-74
2022/06/07 00:46:47;;;;;;;4.40;3.07;;;18.70;72.10;;;;;;5014723;28;20205;-74
2022/06/07 00:49:15;;;;;;;3.90;2.40;;;18.70;72.30;;;;;;5011401;28;20416;-74
2022/06/07 00:51:44;;;;;;;3.57;2.70;;;18.60;72.60;;;;;;5010544;28;20517;-76
2022/06/07 00:54:09;;;;;;;6.43;2.90;;;18.50;72.10;;;;;;5011518;28;20450;-75
2022/06/07 00:56:35;;;;;;;2.73;2.30;;;18.50;72.60;;;;;;5005426;28;20458;-74
2022/06/07 00:59:03;;;;;;;3.30;2.30;;;18.40;72.60;;;;;;5010586;28;20645;-75
2022/06/07 01:01:31;;;;;;;3.50;2.33;;;18.50;72.70;;;;;;5011942;28;20563;-76
2022/06/07 01:03:56;;;;;;;3.63;2.20;;;18.50;72.40;;;;;;5010508;28;20482;-76
2022/06/07 01:11:50;;;;;;;2.20;2.00;;;18.40;72.90;;;;;;5013050;28;20445;-74
2022/06/07 01:14:16;;;;;;;3.10;2.30;;;18.30;73.60;;;;;;5016446;28;20408;-73
2022/06/07 01:16:42;;;;;;;2.70;2.10;;;18.30;73.50;;;;;;5010260;28;20848;-73
2022/06/07 01:19:08;;;;;;;3.23;2.40;;;18.20;73.70;;;;;;5010284;28;20215;-73
2022/06/07 01:21:36;;;;;;;3.53;2.30;;;18.10;74.20;;;;;;5012818;28;20187;-75
2022/06/07 01:24:02;;;;;;;5.20;2.30;;;18.20;74.30;;;;;;5013768;28;20183;-74
2022/06/07 01:26:28;;;;;;;3.93;2.20;;;18.20;74.20;;;;;;5018004;28;20983;-74
2022/06/07 01:28:54;;;;;;;4.07;2.60;;;18.30;73.90;;;;;;5022671;28;20438;-73
2022/06/07 01:31:20;;;;;;;2.63;2.10;;;18.30;74.30;;;;;;5024278;28;20195;-73
2022/06/07 01:33:46;;;;;;;4.80;2.23;;;18.30;74.30;;;;;;5015137;28;20200;-73
2022/06/07 01:36:14;;;;;;;2.50;2.20;;;18.20;74.60;;;;;;5020111;28;20238;-74
2022/06/07 01:38:43;;;;;;;5.73;2.30;;;18.10;74.80;;;;;;5028114;28;20474;-73
2022/06/07 01:43:55;;;;;;;3.30;2.03;;;17.90;74.60;;;;;;5022440;28;20434;-74
2022/06/07 01:46:21;;;;;;;4.90;2.27;;;17.90;75.20;;;;;;5014175;28;20458;-74
2022/06/07 01:48:48;;;;;;;2.03;1.73;;;17.80;75.70;;;;;;5020527;28;20412;-74
2022/06/07 01:51:15;;;;;;;2.83;1.90;;;17.80;75.70;;;;;;5024581;28;20429;-74
2022/06/07 01:53:41;;;;;;;3.33;2.30;;;17.70;75.70;;;;;;5022044;28;20440;-74
2022/06/07 01:56:10;;;;;;;2.77;1.80;;;17.70;76.20;;;;;;5016634;28;20543;-74
2022/06/07 01:58:36;;;;;;;2.40;2.07;;;17.60;76.20;;;;;;5010430;28;20449;-75
2022/06/07 02:01:02;;;;;;;2.60;1.80;;;17.50;76.80;;;;;;5014165;28;20509;-75
2022/06/07 02:03:28;;;;;;;3.47;1.87;;;17.40;76.20;;;;;;5014253;28;20421;-75
2022/06/07 02:06:02;;;;;;;3.40;2.00;;;17.40;76.10;;;;;;5013273;28;20516;-75
2022/06/07 02:08:28;;;;;;;2.73;2.00;;;17.30;76.80;;;;;;5013293;28;20184;-75
2022/06/07 02:10:55;;;;;;;9.90;2.50;;;17.30;77.60;;;;;;5013958;28;20563;-75
2022/06/07 02:13:22;;;;;;;2.57;1.87;;;17.20;78.40;;;;;;5021438;28;20413;-75
2022/06/07 02:15:48;;;;;;;1.90;1.77;;;17.20;77.80;;;;;;5022463;28;20416;-75
2022/06/07 02:18:16;;;;;;;3.10;2.00;;;17.20;77.00;;;;;;5016891;28;20508;-75
2022/06/07 02:20:42;;;;;;;2.77;1.77;;;17.20;76.40;;;;;;5016288;28;21057;-74
2022/06/07 02:23:08;;;;;;;2.80;2.00;;;17.20;76.80;;;;;;5025226;28;20939;-75
2022/06/07 02:25:49;;;;;;;2.40;1.90;;;17.10;77.10;;;;;;5030811;28;21009;-75
2022/06/07 02:28:16;;;;;;;3.03;1.90;;;17.10;77.70;;;;;;5014887;28;20919;-75
2022/06/07 02:30:44;;;;;;;2.27;1.80;;;17.10;77.00;;;;;;5016241;28;20424;-75
2022/06/07 02:33:11;;;;;;;2.00;1.83;;;17.00;76.70;;;;;;5015898;28;21003;-75
2022/06/07 02:35:39;;;;;;;2.17;1.83;;;17.00;76.80;;;;;;5013971;28;20432;-74
2022/06/07 02:38:07;;;;;;;2.83;1.83;;;17.00;77.10;;;;;;5018301;28;20459;-75
2022/06/07 02:40:34;;;;;;;2.00;1.80;;;17.00;77.00;;;;;;5019696;28;20526;-75
2022/06/07 02:43:00;;;;;;;2.67;2.20;;;17.00;77.10;;;;;;5013614;28;20789;-75
2022/06/07 02:45:26;;;;;;;4.50;1.60;;;17.00;78.30;;;;;;5017279;28;20495;-74
2022/06/07 02:47:51;;;;;;;1.57;1.40;;;17.00;78.30;;;;;;5017460;28;20662;-76
2022/06/07 02:50:17;;;;;;;4.37;1.60;;;17.10;77.00;;;;;;5017974;28;20199;-73
2022/06/07 02:52:43;;;;;;;8.97;2.33;;;17.10;77.40;;;;;;5026037;28;20186;-74
2022/06/07 02:55:09;;;;;;;2.60;1.93;;;17.10;77.40;;;;;;5015225;28;20273;-74
2022/06/07 02:57:36;;;;;;;3.00;1.70;;;17.10;77.30;;;;;;5009796;28;20212;-74
2022/06/07 03:00:03;;;;;;;4.07;2.03;;;17.10;77.30;;;;;;5016436;28;20456;-73
2022/06/07 03:02:29;;;;;;;2.70;2.00;;;17.00;76.80;;;;;;5020168;28;20509;-74
2022/06/07 03:04:55;;;;;;;3.80;2.23;;;16.90;77.00;;;;;;5015582;28;20500;-74
2022/06/07 03:07:20;;;;;;;2.43;1.70;;;17.00;76.80;;;;;;5009287;28;20206;-74
2022/06/07 03:09:46;;;;;;;1.97;1.67;;;17.00;77.00;;;;;;5012900;28;20189;-74
2022/06/07 03:12:12;;;;;;;1.90;1.60;;;17.00;76.50;;;;;;5013291;28;20190;-75
2022/06/07 03:14:37;;;;;;;2.17;1.77;;;17.00;76.70;;;;;;5017586;28;20230;-74
2022/06/07 03:17:04;;;;;;;2.23;1.80;;;17.00;76.80;;;;;;5007800;28;20705;-74
2022/06/07 03:19:30;;;;;;;2.27;1.87;;;16.90;77.00;;;;;;5014914;28;20695;-74
2022/06/07 03:21:56;;;;;;;2.50;1.50;;;16.90;77.00;;;;;;5012468;28;20498;-74
2022/06/07 03:24:22;;;;;;;2.50;1.60;;;17.00;77.00;;;;;;5018595;28;20319;-75
2022/06/07 03:26:47;;;;;;;3.43;1.93;;;17.00;76.80;;;;;;5012207;28;20566;-74
2022/06/07 03:29:13;;;;;;;2.67;2.00;;;16.90;76.80;;;;;;5017602;28;20429;-74
2022/06/07 03:31:39;;;;;;;4.80;2.03;;;16.90;78.00;;;;;;5013958;28;20190;-75
2022/06/07 03:34:07;;;;;;;2.90;2.10;;;16.90;78.40;;;;;;5011620;28;20587;-73
2022/06/07 03:36:33;;;;;;;7.10;2.10;;;17.10;78.00;;;;;;5008654;28;20210;-76
2022/06/07 03:39:01;;;;;;;2.90;2.23;;;17.10;78.10;;;;;;5021768;28;20818;-75
2022/06/07 03:41:28;;;;;;;2.17;1.70;;;17.20;78.30;;;;;;5017842;28;20181;-75
2022/06/07 03:43:54;;;;;;;2.97;1.50;;;17.20;78.30;;;;;;5018328;28;20438;-75
2022/06/07 03:46:22;;;;;;;2.40;1.70;;;17.10;78.00;;;;;;5010205;28;20464;-76
2022/06/07 03:48:48;;;;;;;2.90;2.00;;;17.10;78.00;;;;;;5014642;28;20216;-76
2022/06/07 03:51:17;;;;;;;1.43;1.30;;;17.00;76.70;;;;;;5020595;28;20480;-75
2022/06/07 03:53:43;;;;;;;2.30;1.73;;;16.90;76.40;;;;;;5013196;28;21036;-75
2022/06/07 03:56:10;;;;;;;4.10;1.80;;;16.90;76.10;;;;;;5010945;28;20436;-75
2022/06/07 03:58:39;;;;;;;6.20;2.53;;;16.80;75.40;;;;;;5011199;28;20211;-75
2022/06/07 04:01:08;;;;;;;4.20;2.60;;;16.90;74.80;;;;;;5015229;28;20437;-76
2022/06/07 04:03:34;;;;;;;1.93;1.73;;;16.90;73.90;;;;;;5014561;28;20934;-76
2022/06/07 04:06:01;;;;;;;2.80;1.40;;;17.00;73.30;;;;;;5012488;28;20444;-75
2022/06/07 04:08:27;;;;;;;4.77;1.77;;;17.00;73.30;;;;;;5015198;28;20416;-75
2022/06/07 04:10:55;;;;;;;2.03;1.40;;;17.10;72.70;;;;;;5026110;28;20419;-75
2022/06/07 04:13:23;;;;;;;4.97;1.50;;;17.10;72.30;;;;;;5029270;28;20766;-75
2022/06/07 04:15:49;;;;;;;3.47;1.50;;;17.10;72.40;;;;;;5023380;28;20439;-75
2022/06/07 04:18:16;;;;;;;1.73;1.50;;;17.20;72.70;;;;;;5028572;28;20434;-74
2022/06/07 04:20:42;;;;;;;1.83;1.40;;;17.20;73.30;;;;;;5022898;28;20475;-75
2022/06/07 04:23:13;;;;;;;4.00;1.50;;;17.20;73.90;;;;;;5022976;28;20428;-75
2022/06/07 04:25:41;;;;;;;2.10;1.50;;;17.20;74.20;;;;;;5029031;28;20420;-75
2022/06/07 04:28:08;;;;;;;2.63;1.60;;;17.30;74.00;;;;;;5013310;28;20464;-75
2022/06/07 04:30:33;;;;;;;2.40;2.00;;;17.30;73.90;;;;;;5020413;28;20540;-76
2022/06/07 04:32:59;;;;;;;2.43;1.97;;;17.40;74.00;;;;;;5012348;28;20508;-76
2022/06/07 04:35:26;;;;;;;2.83;1.60;;;17.50;73.90;;;;;;5015024;28;20192;-76
2022/06/07 04:37:53;;;;;;;2.07;1.70;;;17.40;74.20;;;;;;5013075;28;20202;-75
2022/06/07 04:40:19;;;;;;;2.50;1.80;;;17.40;74.60;;;;;;5015591;28;20475;-75
2022/06/07 04:42:46;;;;;;;2.07;1.80;;;17.50;74.50;;;;;;5013862;28;20432;-75
2022/06/07 04:45:15;;;;;;;2.00;1.50;;;17.50;74.30;;;;;;5016341;28;20855;-75
2022/06/07 04:47:42;;;;;;;3.33;2.43;;;17.50;74.60;;;;;;5007356;28;20481;-77
2022/06/07 04:50:09;;;;;;;3.17;1.77;;;17.50;74.60;;;;;;5012509;28;20501;-77
2022/06/07 04:52:36;;;;;;;2.00;1.50;;;17.50;74.60;;;;;;5011222;28;20511;-77
2022/06/07 04:55:02;;;;;;;2.70;1.80;;;17.50;74.90;;;;;;5012553;28;20417;-75
2022/06/07 04:57:29;;;;;;;2.47;1.50;;;17.40;75.10;;;;;;5013490;28;20903;-75
2022/06/07 04:59:55;;;;;;;3.63;2.00;;;17.40;75.10;;;;;;5014965;28;20890;-76
2022/06/07 05:02:21;;;;;;;4.57;1.80;;;17.40;75.10;;;;;;5013817;28;20424;-75
2022/06/07 05:04:48;;;;;;;3.60;1.90;;;17.40;74.90;;;;;;5015821;28;20616;-77
2022/06/07 05:07:14;;;;;;;3.13;1.70;;;17.40;74.80;;;;;;5009023;28;20459;-76
2022/06/07 05:09:40;;;;;;;2.80;1.70;;;17.40;74.80;;;;;;5022722;28;20479;-77
2022/06/07 05:12:08;;;;;;;2.17;1.57;;;17.40;75.20;;;;;;5015667;28;20447;-77
2022/06/07 05:14:35;;;;;;;4.03;1.70;;;17.40;75.40;;;;;;5019223;28;20469;-76
2022/06/07 05:17:01;;;;;;;2.87;1.80;;;17.40;75.40;;;;;;5019539;28;20537;-76
2022/06/07 05:19:33;;;;;;;4.17;2.10;;;17.40;75.70;;;;;;5020028;28;20472;-77
2022/06/07 05:22:00;;;;;;;2.53;1.77;;;17.30;76.50;;;;;;5031467;28;20165;-77
2022/06/07 05:24:25;;;;;;;4.30;2.20;;;17.30;77.00;;;;;;5020929;28;20779;-76
2022/06/07 05:26:58;;;;;;;5.60;2.30;;;17.40;77.10;;;;;;5016271;28;20506;-76
2022/06/07 05:29:46;;;;;;;4.60;2.10;;;17.30;77.60;;;;;;5018553;28;20200;-76
2022/06/07 05:32:12;;;;;;;2.20;1.60;;;17.30;77.70;;;;;;5005994;28;20426;-76
2022/06/07 05:34:38;;;;;;;7.10;2.33;;;17.40;77.70;;;;;;5020721;28;20496;-77
2022/06/07 05:37:04;;;;;;;2.67;1.73;;;17.50;77.70;;;;;;5013788;28;20464;-77
2022/06/07 05:39:30;;;;;;;1.87;1.80;;;17.60;77.00;;;;;;5016104;28;20218;-77
2022/06/07 05:41:57;;;;;;;3.13;2.30;;;17.70;77.10;;;;;;5007152;28;20174;-76
2022/06/07 05:44:25;;;;;;;2.83;2.10;;;17.60;77.40;;;;;;5016703;28;20417;-76
2022/06/07 05:46:52;;;;;;;3.03;2.10;;;17.70;77.10;;;;;;5011653;28;20983;-75
2022/06/07 05:49:19;;;;;;;3.20;1.40;;;17.80;76.20;;;;;;5015476;28;20451;-75
2022/06/07 05:51:46;;;;;;;2.97;2.10;;;17.90;75.20;;;;;;5012297;28;20426;-76
2022/06/07 05:54:13;;;;;;;2.13;1.80;;;17.80;75.20;;;;;;5019300;28;20468;-75
2022/06/07 05:56:39;;;;;;;2.10;1.67;;;17.70;75.90;;;;;;5012152;28;21041;-76
2022/06/07 05:59:07;;;;;;;2.80;1.57;;;17.70;76.40;;;;;;5014154;28;20508;-75
2022/06/07 06:01:34;;;;;;;2.83;1.80;;;17.80;76.10;;;;;;5014263;28;20425;-75
2022/06/07 06:04:03;;;;;;;2.50;2.13;;;17.90;75.70;;;;;;5025913;28;20444;-78
2022/06/07 06:06:29;;;;;;;2.37;2.00;;;18.00;75.70;;;;;;5023815;28;21043;-77
2022/06/07 06:11:39;;;;;;;2.53;1.90;;;18.00;75.80;;;;;;5022845;28;20427;-75
2022/06/07 06:14:05;;;;;;;1.97;1.73;;;18.10;75.40;;;;;;5024896;28;20421;-76
2022/06/07 06:16:31;;;;;;;3.23;1.93;;;18.20;74.60;;;;;;5007268;28;20202;-75
2022/06/07 06:18:59;;;;;;;2.47;1.90;;;18.20;74.60;;;;;;5023954;28;20269;-77
2022/06/07 06:21:28;;;;;;;3.03;2.03;;;18.20;74.80;;;;;;5013105;28;20190;-77
2022/06/07 06:23:58;;;;;;;3.40;2.00;;;18.20;74.90;;;;;;5013256;28;20907;-77
2022/06/07 06:26:23;;;;;;;4.37;2.40;;;18.10;75.50;;;;;;5010308;28;20931;-75
2022/06/07 06:28:49;;;;;;;2.57;2.10;;;18.10;75.70;;;;;;5013139;28;20461;-76
2022/06/07 06:31:15;;;;;;;4.00;2.37;;;18.10;75.80;;;;;;5014577;28;20205;-77
2022/06/07 06:33:48;;;;;;;4.40;2.40;;;18.10;75.20;;;;;;5015343;28;20448;-80
2022/06/07 06:36:17;;;;;;;2.90;1.60;;;18.10;75.50;;;;;;5018507;28;20466;-79
2022/06/07 06:38:46;;;;;;;2.70;1.87;;;18.00;75.70;;;;;;5016288;28;20944;-79
2022/06/07 06:41:20;;;;;;;3.97;2.07;;;18.00;75.40;;;;;;5023437;28;20412;-78
2022/06/07 06:43:47;;;;;;;3.27;1.80;;;17.90;74.90;;;;;;5025463;28;20800;-77
2022/06/07 06:46:16;;;;;;;4.33;1.90;;;17.90;75.20;;;;;;5018163;28;20506;-77
2022/06/07 06:48:46;;;;;;;3.00;1.80;;;18.00;74.90;;;;;;5018555;28;20454;-79
2022/06/07 06:51:14;;;;;;;2.03;1.63;;;18.10;75.10;;;;;;5024304;28;20423;-78
2022/06/07 06:53:41;;;;;;;3.43;2.03;;;18.20;74.60;;;;;;5029551;28;20436;-77
2022/06/07 06:56:09;;;;;;;3.30;1.87;;;18.30;73.60;;;;;;5018506;28;20573;-76
2022/06/07 06:58:35;;;;;;;2.53;1.83;;;18.20;73.90;;;;;;5019815;28;20517;-80
2022/06/07 07:01:04;;;;;;;4.37;1.93;;;18.10;73.60;;;;;;5029146;28;20528;-78
2022/06/07 07:03:30;;;;;;;4.73;1.90;;;18.10;74.60;;;;;;5022972;28;20427;-76
2022/06/07 07:05:56;;;;;;;2.93;1.77;;;18.30;75.10;;;;;;5024540;28;20427;-77
2022/06/07 07:08:26;;;;;;;4.57;1.90;;;18.50;74.30;;;;;;5013535;28;20814;-77
2022/06/07 07:11:26;;;;;;;3.43;1.80;;;18.70;73.30;;;;;;5017507;28;20237;-77
2022/06/07 07:13:55;;;;;;;4.50;1.97;;;18.90;71.40;;;;;;5033282;28;20429;-77
2022/06/07 07:16:25;;;;;;;3.80;1.70;;;18.80;71.40;;;;;;5030349;28;20468;-76
2022/06/07 07:18:51;;;;;;;2.60;1.77;;;18.70;70.20;;;;;;5031602;28;20821;-76
2022/06/07 07:21:20;;;;;;;3.83;1.87;;;18.60;71.00;;;;;;5032198;28;20447;-77
2022/06/07 07:23:49;;;;;;;3.17;1.60;;;18.60;71.60;;;;;;5032619;28;20837;-78
2022/06/07 07:26:20;;;;;;;2.50;2.13;;;18.60;71.70;;;;;;5034018;28;20479;-79
2022/06/07 07:28:48;;;;;;;2.50;1.73;;;18.70;71.40;;;;;;5032516;28;20480;-78
2022/06/07 07:31:18;;;;;;;4.63;1.80;;;18.80;70.40;;;;;;5033845;28;20501;-79
2022/06/07 07:33:44;;;;;;;2.37;1.77;;;18.90;69.90;;;;;;5015862;28;20670;-78
2022/06/07 07:36:10;;;;;;;2.97;1.70;;;19.10;69.90;;;;;;5031175;28;20461;-77
2022/06/07 07:38:37;;;;;;;2.25;1.90;;;19.30;69.20;;;;;;5032084;28;20466;-78
2022/06/07 07:41:04;;;;;;;2.80;1.90;;;19.40;68.90;;;;;;5032446;28;21294;-78
2022/06/07 07:43:30;;;;;;;4.13;2.00;;;19.50;69.10;;;;;;5016290;28;20794;-78
2022/06/07 07:45:56;;;;;;;4.53;1.80;;;19.40;68.20;;;;;;5032149;28;20419;-78
2022/06/07 07:48:23;;;;;;;2.80;1.67;;;19.60;68.60;;;;;;5026942;28;20559;-79
2022/06/07 07:50:49;;;;;;;3.97;2.07;;;19.70;67.90;;;;;;5014882;28;20511;-78
2022/06/07 07:53:18;;;;;;;1.90;1.83;;;20.00;68.00;;;;;;5025395;28;20445;-78
2022/06/07 07:55:45;;;;;;;3.43;1.80;;;20.20;66.70;;;;;;5050343;28;20955;-77
2022/06/07 07:58:12;;;;;;;2.00;1.60;;;20.30;65.40;;;;;;5042737;28;21049;-78
2022/06/07 08:00:45;;;;;;;2.37;2.23;;;20.50;64.10;;;;;;5019734;28;20459;-77
2022/06/07 08:03:11;;;;;;;4.17;1.97;;;20.40;63.10;;;;;;5013957;28;20398;-79
2022/06/07 08:05:37;;;;;;;9.20;2.20;;;20.00;64.50;;;;;;5022255;28;20471;-78
2022/06/07 08:08:03;;;;;;;4.17;1.93;;;19.90;64.70;;;;;;5014884;28;20290;-80
2022/06/07 08:10:29;;;;;;;3.40;1.67;;;20.00;64.50;;;;;;5014219;28;20775;-75
2022/06/07 08:12:56;;;;;;;2.60;1.60;;;20.10;63.70;;;;;;5008025;28;20413;-76
2022/06/07 08:15:23;;;;;;;3.87;1.50;;;20.20;63.50;;;;;;5018948;28;20452;-76
2022/06/07 08:17:49;;;;;;;2.90;1.77;;;20.50;61.60;;;;;;5011932;28;20456;-76
2022/06/07 08:20:16;;;;;;;4.10;1.70;;;20.60;61.20;;;;;;5015702;28;20465;-76
2022/06/07 08:22:41;;;;;;;2.90;2.13;;;20.50;62.20;;;;;;5014972;28;20497;-77
2022/06/07 08:25:10;;;;;;;2.30;1.77;;;20.60;62.00;;;;;;5020958;28;20430;-76
2022/06/07 08:27:38;;;;;;;3.30;1.57;;;20.60;61.70;;;;;;5010624;28;20493;-75
2022/06/07 08:30:06;;;;;;;2.80;1.80;;;20.80;61.20;;;;;;5026464;28;20944;-75
2022/06/07 08:32:32;;;;;;;4.40;1.80;;;20.90;61.20;;;;;;5020483;28;20571;-76
2022/06/07 08:37:57;;;;;;;1.63;1.40;;;21.00;60.40;;;;;;5012193;28;20446;-76
2022/06/07 08:40:44;;;;;;;9.73;3.33;;;20.50;60.30;;;;;;5015460;28;20461;-76
2022/06/07 08:43:19;;;;;;;6.03;2.77;;;20.50;62.30;;;;;;5015276;28;20498;-75
2022/06/07 08:45:47;;;;;;;12.27;4.00;;;20.60;61.00;;;;;;5019445;28;20891;-77
2022/06/07 08:48:26;;;;;;;2.83;1.33;;;20.60;61.50;;;;;;5013328;28;21098;-76
2022/06/07 08:51:17;;;;;;;2.80;1.40;;;20.40;61.30;;;;;;5015290;28;20511;-76
2022/06/07 08:53:49;;;;;;;2.27;1.67;;;20.30;62.20;;;;;;5022658;28;20424;-76
2022/06/07 08:56:20;;;;;;;2.20;1.93;;;20.20;62.30;;;;;;5006211;28;20444;-76
2022/06/07 08:58:51;;;;;;;3.37;1.70;;;20.30;62.80;;;;;;5013756;28;20456;-77
2022/06/07 09:01:40;;;;;;;5.23;2.10;;;20.30;62.50;;;;;;5017070;28;20421;-76
2022/06/07 09:04:30;;;;;;;1.87;1.40;;;20.30;63.10;;;;;;5014089;28;20420;-77
2022/06/07 09:07:13;;;;;;;3.13;1.70;;;20.50;61.30;;;;;;5011304;28;20464;-76
2022/06/07 09:12:27;;;;;;;2.13;1.63;;;20.70;61.50;;;;;;5017391;28;20935;-76
2022/06/07 09:15:15;;;;;;;2.03;1.53;;;20.80;59.70;;;;;;5020770;28;20458;-77
2022/06/07 09:17:46;;;;;;;1.67;1.03;;;20.70;59.60;;;;;;5020551;28;20480;-79
2022/06/07 09:20:24;;;;;;;4.27;1.70;;;20.90;58.50;;;;;;5023646;28;20462;-76
2022/06/07 09:23:24;;;;;;;5.87;1.97;;;21.10;57.80;;;;;;5015459;28;20420;-75
2022/06/07 09:25:53;;;;;;;2.47;1.40;;;21.20;58.20;;;;;;5011464;28;20531;-76
2022/06/07 09:28:29;;;;;;;4.27;2.17;;;21.20;58.10;;;;;;5012233;28;20438;-76
2022/06/07 09:31:00;;;;;;;2.00;1.53;;;21.30;57.80;;;;;;5016331;28;20413;-76
2022/06/07 09:33:30;;;;;;;1.97;1.50;;;21.30;56.50;;;;;;5015436;28;20461;-76
2022/06/07 09:36:00;;;;;;;3.07;1.80;;;21.30;56.80;;;;;;5007825;28;20984;-76
2022/06/07 09:38:38;;;;;;;3.67;2.13;;;21.20;58.10;;;;;;5014518;28;20480;-75
2022/06/07 09:41:37;;;;;;;2.83;1.70;;;21.30;58.20;;;;;;5010154;28;20458;-76
2022/06/07 09:44:31;;;;;;;1.83;1.57;;;21.30;57.00;;;;;;5007644;28;20503;-76
2022/06/07 09:47:00;;;;;;;2.57;1.57;;;21.40;56.60;;;;;;5014294;28;20446;-76
2022/06/07 09:49:48;;;;;;;4.07;1.30;;;21.40;56.50;;;;;;5015709;28;20419;-75
2022/06/07 09:52:23;;;;;;;2.50;1.50;;;21.40;56.10;;;;;;5014968;28;20454;-76
2022/06/07 09:54:55;;;;;;;2.57;1.50;;;21.40;57.00;;;;;;5014884;28;21207;-76
2022/06/07 09:57:24;;;;;;;3.60;1.60;;;21.50;56.90;;;;;;5016617;28;20995;-77
2022/06/07 10:00:02;;;;;;;2.03;1.53;;;21.70;55.60;;;;;;5016355;28;20517;-76
2022/06/07 10:02:49;;;;;;;2.63;1.40;;;21.60;53.60;;;;;;5016304;28;20510;-76
2022/06/07 10:05:27;;;;;;;2.50;1.40;;;21.40;54.90;;;;;;5011556;28;20443;-78
2022/06/07 10:08:09;;;;;;;1.67;1.53;;;21.40;54.90;;;;;;5009900;28;20457;-77
2022/06/07 10:10:44;;;;;;;2.63;1.47;;;21.30;55.20;;;;;;5014736;28;20960;-77
2022/06/07 10:13:22;;;;;;;5.10;1.63;;;21.30;53.70;;;;;;5021075;28;20424;-79
2022/06/07 10:16:13;;;;;;;2.80;1.20;;;21.30;54.90;;;;;;5016252;28;20920;-78
2022/06/07 10:19:07;;;;;;;2.97;1.40;;;21.60;55.30;;;;;;5021679;28;20482;-78
2022/06/07 10:21:45;;;;;;;3.23;1.30;;;22.10;53.60;;;;;;5018013;28;20431;-79
2022/06/07 10:24:42;;;;;;;3.63;1.37;;;22.40;53.00;;;;;;5011881;28;20427;-78
2022/06/07 10:27:19;;;;;;;2.40;1.53;;;22.60;52.20;;;;;;5012118;28;20492;-78
2022/06/07 10:29:54;;;;;;;2.17;1.30;;;22.50;52.60;;;;;;5020963;28;20410;-79
2022/06/07 10:32:38;;;;;;;1.87;1.40;;;22.10;53.30;;;;;;5012390;28;20416;-78
2022/06/07 10:35:29;;;;;;;1.43;1.17;;;21.70;52.60;;;;;;5022264;28;20422;-77
2022/06/07 10:38:08;;;;;;;3.03;1.67;;;21.80;51.00;;;;;;5021248;28;20465;-78
2022/06/07 10:40:50;;;;;;;1.77;1.40;;;21.80;51.30;;;;;;5013651;28;20458;-79
2022/06/07 10:43:23;;;;;;;1.93;1.20;;;21.40;52.90;;;;;;5019306;28;20427;-79
2022/06/07 10:45:54;;;;;;;2.10;1.50;;;21.50;53.70;;;;;;5019624;28;20423;-78
2022/06/07 10:48:35;;;;;;;2.93;1.93;;;21.80;53.80;;;;;;5016607;28;20524;-79
2022/06/07 10:54:10;;;;;;;3.00;1.40;;;22.20;54.10;;;;;;5020285;28;20482;-78
2022/06/07 10:56:42;;;;;;;1.77;1.30;;;22.20;52.80;;;;;;5023678;28;20469;-78
2022/06/07 10:59:20;;;;;;;2.80;1.40;;;22.30;52.90;;;;;;5018509;28;20571;-77
2022/06/07 11:02:00;;;;;;;2.83;1.50;;;22.20;53.70;;;;;;5021241;28;20428;-78
2022/06/07 11:10:33;;;;;;;3.33;1.90;;;22.00;54.50;;;;;;5025038;28;20443;-77
2022/06/07 11:13:28;;;;;;;2.53;1.67;;;22.20;54.50;;;;;;5017620;28;20430;-76
2022/06/07 11:16:09;;;;;;;2.63;1.53;;;22.40;54.40;;;;;;5021372;28;20829;-75
2022/06/07 11:18:36;;;;;;;2.63;1.40;;;22.40;54.40;;;;;;5036647;28;20428;-79
2022/06/07 11:21:02;;;;;;;3.80;1.33;;;22.30;53.60;;;;;;5028629;28;20464;-78
2022/06/07 11:23:43;;;;;;;4.50;1.90;;;22.20;53.80;;;;;;5021044;28;20443;-77
2022/06/07 11:26:16;;;;;;;1.43;1.37;;;21.90;54.60;;;;;;5016170;28;20175;-77
2022/06/07 11:28:43;;;;;;;8.87;3.40;;;21.80;55.20;;;;;;5019883;28;20421;-76
2022/06/07 11:31:15;;;;;;;2.33;1.50;;;21.80;55.60;;;;;;5027913;28;20427;-77
2022/06/07 11:33:47;;;;;;;4.17;1.73;;;21.50;55.80;;;;;;5031447;28;20522;-77
2022/06/07 11:36:13;;;;;;;5.90;1.77;;;21.60;55.70;;;;;;5019987;28;20453;-79
2022/06/07 11:38:54;;;;;;;3.00;1.97;;;21.80;56.10;;;;;;5019214;28;20415;-78
2022/06/07 11:41:37;;;;;;;5.00;1.57;;;21.70;56.10;;;;;;5018980;28;21011;-79
2022/06/07 11:44:28;;;;;;;1.97;1.53;;;21.90;56.40;;;;;;5010693;28;20778;-78
2022/06/07 11:46:57;;;;;;;2.70;1.60;;;22.30;55.20;;;;;;5010510;28;20879;-78
2022/06/07 11:49:23;;;;;;;3.03;1.30;;;22.40;54.60;;;;;;5017258;28;20513;-78
2022/06/07 11:52:13;;;;;;;2.50;1.77;;;22.30;55.20;;;;;;5020532;28;20472;-78
2022/06/07 11:54:50;;;;;;;3.17;1.57;;;22.50;55.30;;;;;;5027312;28;20185;-78
2022/06/07 11:57:40;;;;;;;4.40;1.53;;;22.60;55.20;;;;;;5020244;28;20912;-78
2022/06/07 12:00:18;;;;;;;4.03;1.83;;;22.80;54.40;;;;;;5016811;28;20513;-78
2022/06/07 12:03:17;;;;;;;3.20;2.03;;;23.00;54.40;;;;;;5020203;28;20418;-79
2022/06/07 12:05:52;;;;;;;4.07;2.00;;;23.10;54.00;;;;;;5023020;28;20425;-77
2022/06/07 12:08:29;;;;;;;2.10;1.70;;;23.10;54.60;;;;;;5013113;28;20846;-77
2022/06/07 12:11:20;;;;;;;5.00;1.80;;;23.00;55.00;;;;;;5019935;28;20458;-76
2022/06/07 12:13:52;;;;;;;4.00;1.90;;;22.60;56.20;;;;;;5015693;28;20430;-80
2022/06/07 12:16:39;;;;;;;2.63;2.00;;;22.60;56.90;;;;;;5006776;28;20465;-76
2022/06/07 12:19:26;;;;;;;3.77;1.73;;;22.70;55.80;;;;;;5016477;28;20450;-78
2022/06/07 12:22:20;;;;;;;2.83;1.80;;;22.80;56.40;;;;;;5012960;28;20418;-77
2022/06/07 12:24:53;;;;;;;4.53;2.47;;;22.40;57.00;;;;;;5012577;28;20430;-76
2022/06/07 12:27:22;;;;;;;2.17;1.77;;;22.60;57.20;;;;;;5010907;28;20464;-76
2022/06/07 12:29:48;;;;;;;2.77;2.10;;;23.10;56.10;;;;;;5013040;28;20456;-77
2022/06/07 12:32:25;;;;;;;3.43;2.40;;;23.70;54.00;;;;;;5015923;28;20905;-77
2022/06/07 12:35:41;;;;;;;3.57;2.37;;;24.20;52.40;;;;;;5018747;28;20428;-76
2022/06/07 12:38:12;;;;;;;2.97;2.23;;;24.30;53.40;;;;;;4987015;28;21014;-77
2022/06/07 12:40:54;;;;;;;2.00;1.70;;;24.60;51.30;;;;;;4990266;28;20466;-77
2022/06/07 12:43:24;;;;;;;2.57;1.80;;;24.60;52.10;;;;;;4999275;28;20541;-77
2022/06/07 12:46:07;;;;;;;3.53;1.93;;;24.60;51.20;;;;;;4993073;28;20597;-77
2022/06/07 12:48:40;;;;;;;7.33;2.20;;;24.40;51.30;;;;;;4990957;28;20447;-76
2022/06/07 12:51:24;;;;;;;3.10;2.20;;;23.90;52.60;;;;;;4989536;28;20416;-76
2022/06/07 12:53:58;;;;;;;2.77;1.80;;;23.80;53.60;;;;;;5003239;28;21027;-77
2022/06/07 12:56:28;;;;;;;2.50;1.77;;;23.80;53.20;;;;;;4987948;28;20464;-76
2022/06/07 12:58:57;;;;;;;3.70;2.63;;;24.10;52.60;;;;;;4996937;28;20441;-76
2022/06/07 13:01:25;;;;;;;3.83;1.97;;;24.00;52.40;;;;;;4997467;28;20422;-77
2022/06/07 13:03:54;;;;;;;6.17;2.00;;;23.90;52.80;;;;;;4999553;28;20436;-78
2022/06/07 13:06:21;;;;;;;3.70;2.90;;;23.40;53.80;;;;;;4975812;28;20461;-76
2022/06/07 13:09:05;;;;;;;2.33;2.20;;;23.10;55.00;;;;;;5001416;28;20803;-75
2022/06/07 13:11:37;;;;;;;3.80;2.10;;;22.80;56.40;;;;;;5010158;28;20424;-77
2022/06/07 13:14:03;;;;;;;3.60;2.03;;;22.70;56.60;;;;;;5014690;28;20466;-77
2022/06/07 13:16:38;;;;;;;4.67;1.90;;;22.80;56.50;;;;;;5009513;28;20992;-76
2022/06/07 13:19:26;;;;;;;3.67;2.10;;;23.20;55.60;;;;;;5009882;28;20445;-76
2022/06/07 13:22:00;;;;;;;5.27;2.50;;;23.40;54.50;;;;;;5015438;28;20774;-76
2022/06/07 13:24:49;;;;;;;3.33;1.97;;;23.80;53.30;;;;;;5015623;28;20473;-78
2022/06/07 13:27:44;;;;;;;3.10;1.90;;;23.90;53.40;;;;;;5012081;28;20473;-78
2022/06/07 13:30:15;;;;;;;3.77;2.07;;;23.90;53.00;;;;;;5021425;28;20503;-77
2022/06/07 13:32:41;;;;;;;3.23;2.07;;;23.40;54.60;;;;;;5021034;28;20434;-77